sensor_id;sensor_type;location;lat;lon;timestamp;P1;durP1;ratioP1;P2;durP2;ratioP2
56997;SDS011;42890;44.244;22.530;2023-12-20T00:00:23;29.55;;;24.25;;
56997;SDS011;42890;44.244;22.530;2023-12-20T00:02:49;99.25;;;42.78;;
56997;SDS011;42890;44.244;22.530;2023-12-20T00:05:15;53.35;;;42.00;;
56997;SDS011;42890;44.244;22.530;2023-12-20T00:07:41;28.20;;;23.95;;
56997;SDS011;42890;44.244;22.530;2023-12-20T00:10:07;136.50;;;51.88;;
56997;SDS011;42890;44.244;22.530;2023-12-20T00:12:36;42.35;;;31.65;;
56997;SDS011;42890;44.244;22.530;2023-12-20T00:15:10;31.85;;;24.20;;
56997;SDS011;42890;44.244;22.530;2023-12-20T00:17:37;19.48;;;17.33;;
56997;SDS011;42890;44.244;22.530;2023-12-20T00:20:03;21.20;;;18.08;;
56997;SDS011;42890;44.244;22.530;2023-12-20T00:22:30;21.45;;;19.17;;
56997;SDS011;42890;44.244;22.530;2023-12-20T00:24:58;21.77;;;18.17;;
56997;SDS011;42890;44.244;22.530;2023-12-20T00:27:25;18.10;;;14.48;;
56997;SDS011;42890;44.244;22.530;2023-12-20T00:29:51;18.52;;;15.55;;
56997;SDS011;42890;44.244;22.530;2023-12-20T00:32:17;16.65;;;13.55;;
56997;SDS011;42890;44.244;22.530;2023-12-20T00:34:43;17.48;;;12.82;;
56997;SDS011;42890;44.244;22.530;2023-12-20T00:37:10;14.52;;;11.52;;
56997;SDS011;42890;44.244;22.530;2023-12-20T00:39:36;15.18;;;12.32;;
56997;SDS011;42890;44.244;22.530;2023-12-20T00:42:02;17.52;;;11.63;;
56997;SDS011;42890;44.244;22.530;2023-12-20T00:44:28;19.70;;;11.93;;
56997;SDS011;42890;44.244;22.530;2023-12-20T00:46:54;47.03;;;25.67;;
56997;SDS011;42890;44.244;22.530;2023-12-20T00:49:20;81.32;;;36.50;;
56997;SDS011;42890;44.244;22.530;2023-12-20T00:51:47;158.57;;;57.65;;
56997;SDS011;42890;44.244;22.530;2023-12-20T00:54:15;60.65;;;30.83;;
56997;SDS011;42890;44.244;22.530;2023-12-20T00:56:41;17.42;;;13.13;;
56997;SDS011;42890;44.244;22.530;2023-12-20T00:59:07;12.35;;;11.00;;
56997;SDS011;42890;44.244;22.530;2023-12-20T01:01:33;24.73;;;17.60;;
56997;SDS011;42890;44.244;22.530;2023-12-20T01:04:00;29.77;;;21.77;;
56997;SDS011;42890;44.244;22.530;2023-12-20T01:06:26;40.75;;;28.85;;
56997;SDS011;42890;44.244;22.530;2023-12-20T01:08:52;113.47;;;55.08;;
56997;SDS011;42890;44.244;22.530;2023-12-20T01:11:18;74.55;;;40.90;;
56997;SDS011;42890;44.244;22.530;2023-12-20T01:13:44;186.93;;;80.82;;
56997;SDS011;42890;44.244;22.530;2023-12-20T01:16:10;163.63;;;72.90;;
56997;SDS011;42890;44.244;22.530;2023-12-20T01:18:37;306.35;;;136.27;;
56997;SDS011;42890;44.244;22.530;2023-12-20T01:21:04;170.07;;;76.97;;
56997;SDS011;42890;44.244;22.530;2023-12-20T01:23:30;247.80;;;117.43;;
56997;SDS011;42890;44.244;22.530;2023-12-20T01:25:56;43.78;;;31.42;;
56997;SDS011;42890;44.244;22.530;2023-12-20T01:28:24;30.27;;;22.27;;
56997;SDS011;42890;44.244;22.530;2023-12-20T01:30:51;32.65;;;25.98;;
56997;SDS011;42890;44.244;22.530;2023-12-20T01:33:17;33.97;;;26.90;;
56997;SDS011;42890;44.244;22.530;2023-12-20T01:35:43;35.40;;;28.98;;
56997;SDS011;42890;44.244;22.530;2023-12-20T01:38:09;50.17;;;35.67;;
56997;SDS011;42890;44.244;22.530;2023-12-20T01:40:36;25.38;;;22.33;;
56997;SDS011;42890;44.244;22.530;2023-12-20T01:43:04;25.00;;;20.02;;
56997;SDS011;42890;44.244;22.530;2023-12-20T01:45:32;29.60;;;21.45;;
56997;SDS011;42890;44.244;22.530;2023-12-20T01:47:58;23.48;;;19.50;;
56997;SDS011;42890;44.244;22.530;2023-12-20T01:50:24;24.30;;;19.40;;
56997;SDS011;42890;44.244;22.530;2023-12-20T01:52:51;27.08;;;18.60;;
56997;SDS011;42890;44.244;22.530;2023-12-20T01:55:18;21.48;;;15.35;;
56997;SDS011;42890;44.244;22.530;2023-12-20T01:57:45;19.58;;;16.45;;
56997;SDS011;42890;44.244;22.530;2023-12-20T02:00:12;26.17;;;20.48;;
56997;SDS011;42890;44.244;22.530;2023-12-20T02:02:39;19.98;;;15.82;;
56997;SDS011;42890;44.244;22.530;2023-12-20T02:05:06;16.40;;;12.50;;
56997;SDS011;42890;44.244;22.530;2023-12-20T02:07:32;50.03;;;30.23;;
56997;SDS011;42890;44.244;22.530;2023-12-20T02:10:00;23.90;;;16.33;;
56997;SDS011;42890;44.244;22.530;2023-12-20T02:12:26;29.88;;;16.80;;
56997;SDS011;42890;44.244;22.530;2023-12-20T02:14:52;15.07;;;11.98;;
56997;SDS011;42890;44.244;22.530;2023-12-20T02:17:19;15.15;;;11.23;;
56997;SDS011;42890;44.244;22.530;2023-12-20T02:19:45;20.30;;;16.13;;
56997;SDS011;42890;44.244;22.530;2023-12-20T02:22:12;22.55;;;17.17;;
56997;SDS011;42890;44.244;22.530;2023-12-20T02:24:38;212.57;;;93.53;;
56997;SDS011;42890;44.244;22.530;2023-12-20T02:27:05;210.20;;;107.22;;
56997;SDS011;42890;44.244;22.530;2023-12-20T02:29:35;72.78;;;53.50;;
56997;SDS011;42890;44.244;22.530;2023-12-20T02:32:01;43.08;;;31.65;;
56997;SDS011;42890;44.244;22.530;2023-12-20T02:34:28;140.55;;;77.22;;
56997;SDS011;42890;44.244;22.530;2023-12-20T02:36:54;31.85;;;25.00;;
56997;SDS011;42890;44.244;22.530;2023-12-20T02:39:22;68.78;;;53.80;;
56997;SDS011;42890;44.244;22.530;2023-12-20T02:41:49;41.47;;;35.78;;
56997;SDS011;42890;44.244;22.530;2023-12-20T02:44:15;381.23;;;181.30;;
56997;SDS011;42890;44.244;22.530;2023-12-20T02:46:41;360.85;;;157.60;;
56997;SDS011;42890;44.244;22.530;2023-12-20T02:49:07;176.98;;;87.90;;
56997;SDS011;42890;44.244;22.530;2023-12-20T02:51:33;121.05;;;69.93;;
56997;SDS011;42890;44.244;22.530;2023-12-20T02:53:59;242.02;;;115.97;;
56997;SDS011;42890;44.244;22.530;2023-12-20T02:56:25;315.08;;;144.43;;
56997;SDS011;42890;44.244;22.530;2023-12-20T02:58:51;281.70;;;130.73;;
56997;SDS011;42890;44.244;22.530;2023-12-20T03:01:18;118.10;;;63.45;;
56997;SDS011;42890;44.244;22.530;2023-12-20T03:03:47;111.75;;;63.42;;
56997;SDS011;42890;44.244;22.530;2023-12-20T03:06:16;37.97;;;27.50;;
56997;SDS011;42890;44.244;22.530;2023-12-20T03:08:43;50.72;;;37.63;;
56997;SDS011;42890;44.244;22.530;2023-12-20T03:11:09;29.10;;;21.92;;
56997;SDS011;42890;44.244;22.530;2023-12-20T03:13:35;18.80;;;15.50;;
56997;SDS011;42890;44.244;22.530;2023-12-20T03:16:07;22.30;;;18.52;;
56997;SDS011;42890;44.244;22.530;2023-12-20T03:18:36;22.88;;;17.83;;
56997;SDS011;42890;44.244;22.530;2023-12-20T03:21:02;19.08;;;15.95;;
56997;SDS011;42890;44.244;22.530;2023-12-20T03:23:29;17.35;;;15.55;;
56997;SDS011;42890;44.244;22.530;2023-12-20T03:25:57;17.35;;;15.45;;
56997;SDS011;42890;44.244;22.530;2023-12-20T03:28:23;16.08;;;14.48;;
56997;SDS011;42890;44.244;22.530;2023-12-20T03:30:50;16.85;;;15.15;;
56997;SDS011;42890;44.244;22.530;2023-12-20T03:33:16;22.05;;;18.95;;
56997;SDS011;42890;44.244;22.530;2023-12-20T03:35:42;15.50;;;13.68;;
56997;SDS011;42890;44.244;22.530;2023-12-20T03:38:08;15.07;;;13.25;;
56997;SDS011;42890;44.244;22.530;2023-12-20T03:40:34;21.40;;;18.30;;
56997;SDS011;42890;44.244;22.530;2023-12-20T03:43:00;63.40;;;37.97;;
56997;SDS011;42890;44.244;22.530;2023-12-20T03:45:26;60.22;;;39.92;;
56997;SDS011;42890;44.244;22.530;2023-12-20T03:47:55;65.07;;;35.75;;
56997;SDS011;42890;44.244;22.530;2023-12-20T03:50:25;67.90;;;37.22;;
56997;SDS011;42890;44.244;22.530;2023-12-20T03:52:51;36.17;;;21.90;;
56997;SDS011;42890;44.244;22.530;2023-12-20T03:55:18;28.55;;;20.67;;
56997;SDS011;42890;44.244;22.530;2023-12-20T03:57:44;24.83;;;18.02;;
56997;SDS011;42890;44.244;22.530;2023-12-20T04:00:13;21.95;;;16.48;;
56997;SDS011;42890;44.244;22.530;2023-12-20T04:02:45;23.88;;;18.40;;
56997;SDS011;42890;44.244;22.530;2023-12-20T04:05:14;24.13;;;17.90;;
56997;SDS011;42890;44.244;22.530;2023-12-20T04:07:40;23.92;;;18.95;;
56997;SDS011;42890;44.244;22.530;2023-12-20T04:10:06;18.58;;;15.50;;
56997;SDS011;42890;44.244;22.530;2023-12-20T04:12:33;25.67;;;20.15;;
56997;SDS011;42890;44.244;22.530;2023-12-20T04:14:59;18.58;;;14.45;;
56997;SDS011;42890;44.244;22.530;2023-12-20T04:17:25;11.23;;;10.02;;
56997;SDS011;42890;44.244;22.530;2023-12-20T04:19:51;13.57;;;10.30;;
56997;SDS011;42890;44.244;22.530;2023-12-20T04:22:18;16.88;;;13.25;;
56997;SDS011;42890;44.244;22.530;2023-12-20T04:24:44;22.50;;;16.77;;
56997;SDS011;42890;44.244;22.530;2023-12-20T04:27:11;23.50;;;18.15;;
56997;SDS011;42890;44.244;22.530;2023-12-20T04:29:37;23.75;;;18.42;;
56997;SDS011;42890;44.244;22.530;2023-12-20T04:32:04;98.72;;;48.28;;
56997;SDS011;42890;44.244;22.530;2023-12-20T04:34:30;249.88;;;90.45;;
56997;SDS011;42890;44.244;22.530;2023-12-20T04:36:56;498.05;;;225.13;;
56997;SDS011;42890;44.244;22.530;2023-12-20T04:39:22;97.95;;;51.90;;
56997;SDS011;42890;44.244;22.530;2023-12-20T04:41:48;667.05;;;290.20;;
56997;SDS011;42890;44.244;22.530;2023-12-20T04:44:15;75.57;;;41.50;;
56997;SDS011;42890;44.244;22.530;2023-12-20T04:46:41;44.42;;;33.25;;
56997;SDS011;42890;44.244;22.530;2023-12-20T04:49:07;51.60;;;37.58;;
56997;SDS011;42890;44.244;22.530;2023-12-20T04:51:33;53.30;;;42.05;;
56997;SDS011;42890;44.244;22.530;2023-12-20T04:54:00;66.07;;;48.78;;
56997;SDS011;42890;44.244;22.530;2023-12-20T04:56:26;77.13;;;54.80;;
56997;SDS011;42890;44.244;22.530;2023-12-20T04:58:52;81.90;;;55.10;;
56997;SDS011;42890;44.244;22.530;2023-12-20T05:01:18;156.05;;;85.63;;
56997;SDS011;42890;44.244;22.530;2023-12-20T05:03:45;221.75;;;116.07;;
56997;SDS011;42890;44.244;22.530;2023-12-20T05:06:12;238.60;;;117.22;;
56997;SDS011;42890;44.244;22.530;2023-12-20T05:08:38;345.63;;;163.60;;
56997;SDS011;42890;44.244;22.530;2023-12-20T05:11:04;149.20;;;81.35;;
56997;SDS011;42890;44.244;22.530;2023-12-20T05:13:30;272.95;;;140.15;;
56997;SDS011;42890;44.244;22.530;2023-12-20T05:15:56;259.48;;;132.02;;
56997;SDS011;42890;44.244;22.530;2023-12-20T05:18:22;238.02;;;121.82;;
56997;SDS011;42890;44.244;22.530;2023-12-20T05:20:49;301.58;;;155.52;;
56997;SDS011;42890;44.244;22.530;2023-12-20T05:23:17;179.15;;;99.18;;
56997;SDS011;42890;44.244;22.530;2023-12-20T05:25:45;164.60;;;89.50;;
56997;SDS011;42890;44.244;22.530;2023-12-20T05:28:11;146.23;;;82.13;;
56997;SDS011;42890;44.244;22.530;2023-12-20T05:30:37;158.57;;;88.88;;
56997;SDS011;42890;44.244;22.530;2023-12-20T05:33:03;179.93;;;92.60;;
56997;SDS011;42890;44.244;22.530;2023-12-20T05:35:29;156.10;;;86.80;;
56997;SDS011;42890;44.244;22.530;2023-12-20T05:37:56;146.18;;;83.82;;
56997;SDS011;42890;44.244;22.530;2023-12-20T05:40:25;150.45;;;84.40;;
56997;SDS011;42890;44.244;22.530;2023-12-20T05:42:51;128.88;;;78.88;;
56997;SDS011;42890;44.244;22.530;2023-12-20T05:45:17;113.72;;;72.97;;
56997;SDS011;42890;44.244;22.530;2023-12-20T05:47:43;119.20;;;70.28;;
56997;SDS011;42890;44.244;22.530;2023-12-20T05:50:09;104.05;;;68.85;;
56997;SDS011;42890;44.244;22.530;2023-12-20T05:52:35;280.13;;;101.35;;
56997;SDS011;42890;44.244;22.530;2023-12-20T05:55:02;113.93;;;66.63;;
56997;SDS011;42890;44.244;22.530;2023-12-20T05:57:28;144.02;;;75.22;;
56997;SDS011;42890;44.244;22.530;2023-12-20T05:59:57;101.35;;;66.55;;
56997;SDS011;42890;44.244;22.530;2023-12-20T06:02:23;85.80;;;63.53;;
56997;SDS011;42890;44.244;22.530;2023-12-20T06:04:49;99.72;;;60.47;;
56997;SDS011;42890;44.244;22.530;2023-12-20T06:07:16;109.35;;;65.25;;
56997;SDS011;42890;44.244;22.530;2023-12-20T06:09:42;64.55;;;47.88;;
56997;SDS011;42890;44.244;22.530;2023-12-20T06:12:10;387.27;;;114.70;;
56997;SDS011;42890;44.244;22.530;2023-12-20T06:14:36;86.93;;;51.13;;
56997;SDS011;42890;44.244;22.530;2023-12-20T06:17:03;46.83;;;36.53;;
56997;SDS011;42890;44.244;22.530;2023-12-20T06:19:29;74.43;;;46.38;;
56997;SDS011;42890;44.244;22.530;2023-12-20T06:21:55;127.75;;;63.05;;
56997;SDS011;42890;44.244;22.530;2023-12-20T06:24:21;43.17;;;35.08;;
56997;SDS011;42890;44.244;22.530;2023-12-20T06:26:47;33.75;;;26.08;;
56997;SDS011;42890;44.244;22.530;2023-12-20T06:29:13;30.95;;;25.42;;
56997;SDS011;42890;44.244;22.530;2023-12-20T06:31:40;41.50;;;34.25;;
56997;SDS011;42890;44.244;22.530;2023-12-20T06:34:06;40.15;;;32.47;;
56997;SDS011;42890;44.244;22.530;2023-12-20T06:36:32;23.92;;;20.63;;
56997;SDS011;42890;44.244;22.530;2023-12-20T06:38:58;23.05;;;20.08;;
56997;SDS011;42890;44.244;22.530;2023-12-20T06:41:24;26.38;;;20.30;;
56997;SDS011;42890;44.244;22.530;2023-12-20T06:43:51;27.73;;;23.88;;
56997;SDS011;42890;44.244;22.530;2023-12-20T06:46:18;22.17;;;16.05;;
56997;SDS011;42890;44.244;22.530;2023-12-20T06:48:44;24.25;;;18.85;;
56997;SDS011;42890;44.244;22.530;2023-12-20T06:51:16;29.38;;;22.23;;
56997;SDS011;42890;44.244;22.530;2023-12-20T06:53:44;26.20;;;22.33;;
56997;SDS011;42890;44.244;22.530;2023-12-20T06:56:13;33.42;;;26.05;;
56997;SDS011;42890;44.244;22.530;2023-12-20T06:58:41;54.47;;;39.10;;
56997;SDS011;42890;44.244;22.530;2023-12-20T07:01:14;85.20;;;60.45;;
56997;SDS011;42890;44.244;22.530;2023-12-20T07:03:40;158.65;;;93.32;;
56997;SDS011;42890;44.244;22.530;2023-12-20T07:06:06;175.27;;;75.60;;
56997;SDS011;42890;44.244;22.530;2023-12-20T07:08:33;448.58;;;157.05;;
56997;SDS011;42890;44.244;22.530;2023-12-20T07:10:59;207.85;;;104.63;;
56997;SDS011;42890;44.244;22.530;2023-12-20T07:13:28;166.43;;;95.05;;
56997;SDS011;42890;44.244;22.530;2023-12-20T07:15:55;116.25;;;73.55;;
56997;SDS011;42890;44.244;22.530;2023-12-20T07:18:24;123.68;;;59.47;;
56997;SDS011;42890;44.244;22.530;2023-12-20T07:20:50;169.45;;;79.35;;
56997;SDS011;42890;44.244;22.530;2023-12-20T07:23:16;209.02;;;95.72;;
56997;SDS011;42890;44.244;22.530;2023-12-20T07:25:44;186.23;;;86.50;;
56997;SDS011;42890;44.244;22.530;2023-12-20T07:28:10;175.07;;;86.18;;
56997;SDS011;42890;44.244;22.530;2023-12-20T07:30:39;158.70;;;73.20;;
56997;SDS011;42890;44.244;22.530;2023-12-20T07:33:06;251.20;;;116.10;;
56997;SDS011;42890;44.244;22.530;2023-12-20T07:35:35;225.63;;;108.03;;
56997;SDS011;42890;44.244;22.530;2023-12-20T07:38:01;114.03;;;66.22;;
56997;SDS011;42890;44.244;22.530;2023-12-20T07:40:27;142.63;;;71.63;;
56997;SDS011;42890;44.244;22.530;2023-12-20T07:42:54;122.60;;;67.07;;
56997;SDS011;42890;44.244;22.530;2023-12-20T07:45:23;92.47;;;66.60;;
56997;SDS011;42890;44.244;22.530;2023-12-20T07:47:49;77.68;;;56.00;;
56997;SDS011;42890;44.244;22.530;2023-12-20T07:50:15;72.45;;;52.33;;
56997;SDS011;42890;44.244;22.530;2023-12-20T07:52:41;74.90;;;56.47;;
56997;SDS011;42890;44.244;22.530;2023-12-20T07:55:07;54.83;;;38.72;;
56997;SDS011;42890;44.244;22.530;2023-12-20T07:57:34;76.75;;;55.60;;
56997;SDS011;42890;44.244;22.530;2023-12-20T08:00:10;56.13;;;42.33;;
56997;SDS011;42890;44.244;22.530;2023-12-20T08:02:37;52.45;;;39.03;;
56997;SDS011;42890;44.244;22.530;2023-12-20T08:05:03;54.72;;;45.40;;
56997;SDS011;42890;44.244;22.530;2023-12-20T08:07:29;57.15;;;48.15;;
56997;SDS011;42890;44.244;22.530;2023-12-20T08:09:55;70.50;;;55.67;;
56997;SDS011;42890;44.244;22.530;2023-12-20T08:12:22;72.32;;;58.22;;
56997;SDS011;42890;44.244;22.530;2023-12-20T08:14:48;68.13;;;54.70;;
56997;SDS011;42890;44.244;22.530;2023-12-20T08:17:14;99.45;;;68.75;;
56997;SDS011;42890;44.244;22.530;2023-12-20T08:19:41;41.50;;;31.20;;
56997;SDS011;42890;44.244;22.530;2023-12-20T08:22:07;22.80;;;19.75;;
56997;SDS011;42890;44.244;22.530;2023-12-20T08:24:34;27.25;;;23.05;;
56997;SDS011;42890;44.244;22.530;2023-12-20T08:27:00;20.33;;;16.95;;
56997;SDS011;42890;44.244;22.530;2023-12-20T08:29:26;26.33;;;20.67;;
56997;SDS011;42890;44.244;22.530;2023-12-20T08:31:52;29.73;;;19.48;;
56997;SDS011;42890;44.244;22.530;2023-12-20T08:34:19;27.45;;;20.35;;
56997;SDS011;42890;44.244;22.530;2023-12-20T08:36:45;25.80;;;19.23;;
56997;SDS011;42890;44.244;22.530;2023-12-20T08:39:11;32.05;;;23.77;;
56997;SDS011;42890;44.244;22.530;2023-12-20T08:41:40;51.15;;;34.72;;
56997;SDS011;42890;44.244;22.530;2023-12-20T08:44:07;35.63;;;30.83;;
56997;SDS011;42890;44.244;22.530;2023-12-20T08:46:33;27.80;;;24.88;;
56997;SDS011;42890;44.244;22.530;2023-12-20T08:48:59;25.15;;;22.45;;
56997;SDS011;42890;44.244;22.530;2023-12-20T08:51:25;35.17;;;26.33;;
56997;SDS011;42890;44.244;22.530;2023-12-20T08:53:52;40.65;;;30.10;;
56997;SDS011;42890;44.244;22.530;2023-12-20T08:56:18;51.72;;;35.67;;
56997;SDS011;42890;44.244;22.530;2023-12-20T08:58:44;42.25;;;31.30;;
56997;SDS011;42890;44.244;22.530;2023-12-20T09:01:10;23.08;;;20.60;;
56997;SDS011;42890;44.244;22.530;2023-12-20T09:03:36;22.35;;;19.27;;
56997;SDS011;42890;44.244;22.530;2023-12-20T09:08:39;29.60;;;24.10;;
56997;SDS011;42890;44.244;22.530;2023-12-20T09:11:06;36.88;;;32.88;;
56997;SDS011;42890;44.244;22.530;2023-12-20T09:13:32;23.55;;;21.15;;
56997;SDS011;42890;44.244;22.530;2023-12-20T09:15:58;21.52;;;19.33;;
56997;SDS011;42890;44.244;22.530;2023-12-20T09:18:24;20.85;;;17.80;;
56997;SDS011;42890;44.244;22.530;2023-12-20T09:20:50;28.52;;;25.05;;
56997;SDS011;42890;44.244;22.530;2023-12-20T09:23:17;29.00;;;26.00;;
56997;SDS011;42890;44.244;22.530;2023-12-20T09:25:43;28.63;;;25.63;;
56997;SDS011;42890;44.244;22.530;2023-12-20T09:28:09;28.13;;;24.00;;
56997;SDS011;42890;44.244;22.530;2023-12-20T09:30:35;24.13;;;21.63;;
56997;SDS011;42890;44.244;22.530;2023-12-20T09:33:04;23.38;;;20.92;;
56997;SDS011;42890;44.244;22.530;2023-12-20T09:35:32;23.83;;;21.27;;
56997;SDS011;42890;44.244;22.530;2023-12-20T09:37:58;30.40;;;26.38;;
56997;SDS011;42890;44.244;22.530;2023-12-20T09:40:25;38.78;;;32.95;;
56997;SDS011;42890;44.244;22.530;2023-12-20T09:42:58;30.08;;;25.98;;
56997;SDS011;42890;44.244;22.530;2023-12-20T09:45:26;21.83;;;19.45;;
56997;SDS011;42890;44.244;22.530;2023-12-20T09:47:53;27.73;;;23.25;;
56997;SDS011;42890;44.244;22.530;2023-12-20T09:50:21;24.73;;;21.50;;
56997;SDS011;42890;44.244;22.530;2023-12-20T09:52:51;21.55;;;19.38;;
56997;SDS011;42890;44.244;22.530;2023-12-20T09:55:18;20.08;;;17.98;;
56997;SDS011;42890;44.244;22.530;2023-12-20T09:57:45;22.17;;;18.33;;
56997;SDS011;42890;44.244;22.530;2023-12-20T10:00:12;20.25;;;18.35;;
56997;SDS011;42890;44.244;22.530;2023-12-20T10:02:38;22.10;;;18.90;;
56997;SDS011;42890;44.244;22.530;2023-12-20T10:05:06;20.58;;;18.58;;
56997;SDS011;42890;44.244;22.530;2023-12-20T10:07:34;20.58;;;18.50;;
56997;SDS011;42890;44.244;22.530;2023-12-20T10:10:01;20.08;;;17.98;;
56997;SDS011;42890;44.244;22.530;2023-12-20T10:12:27;21.60;;;17.92;;
56997;SDS011;42890;44.244;22.530;2023-12-20T10:14:53;22.33;;;20.17;;
56997;SDS011;42890;44.244;22.530;2023-12-20T10:17:20;23.65;;;21.35;;
56997;SDS011;42890;44.244;22.530;2023-12-20T10:19:48;25.17;;;22.67;;
56997;SDS011;42890;44.244;22.530;2023-12-20T10:22:14;23.98;;;21.40;;
56997;SDS011;42890;44.244;22.530;2023-12-20T10:24:41;23.20;;;20.50;;
56997;SDS011;42890;44.244;22.530;2023-12-20T10:27:08;22.83;;;20.58;;
56997;SDS011;42890;44.244;22.530;2023-12-20T10:29:35;20.52;;;18.55;;
56997;SDS011;42890;44.244;22.530;2023-12-20T10:34:47;20.80;;;18.67;;
56997;SDS011;42890;44.244;22.530;2023-12-20T10:37:13;20.42;;;18.35;;
56997;SDS011;42890;44.244;22.530;2023-12-20T10:39:40;22.38;;;18.48;;
56997;SDS011;42890;44.244;22.530;2023-12-20T10:42:09;24.73;;;20.70;;
56997;SDS011;42890;44.244;22.530;2023-12-20T10:44:36;21.67;;;19.48;;
56997;SDS011;42890;44.244;22.530;2023-12-20T10:47:02;22.25;;;20.02;;
56997;SDS011;42890;44.244;22.530;2023-12-20T10:49:29;20.20;;;18.20;;
56997;SDS011;42890;44.244;22.530;2023-12-20T10:51:56;22.98;;;20.58;;
56997;SDS011;42890;44.244;22.530;2023-12-20T10:54:22;26.73;;;24.30;;
56997;SDS011;42890;44.244;22.530;2023-12-20T10:56:49;24.67;;;22.23;;
56997;SDS011;42890;44.244;22.530;2023-12-20T10:59:19;28.05;;;25.20;;
56997;SDS011;42890;44.244;22.530;2023-12-20T11:01:47;31.25;;;28.00;;
56997;SDS011;42890;44.244;22.530;2023-12-20T11:04:15;25.23;;;22.63;;
56997;SDS011;42890;44.244;22.530;2023-12-20T11:06:49;25.83;;;23.33;;
56997;SDS011;42890;44.244;22.530;2023-12-20T11:17:09;30.83;;;27.52;;
56997;SDS011;42890;44.244;22.530;2023-12-20T11:22:26;36.58;;;32.85;;
56997;SDS011;42890;44.244;22.530;2023-12-20T11:24:53;24.95;;;22.35;;
56997;SDS011;42890;44.244;22.530;2023-12-20T11:27:21;23.75;;;21.35;;
56997;SDS011;42890;44.244;22.530;2023-12-20T11:29:54;25.80;;;22.98;;
56997;SDS011;42890;44.244;22.530;2023-12-20T11:34:53;25.63;;;23.00;;
56997;SDS011;42890;44.244;22.530;2023-12-20T11:37:20;35.08;;;21.95;;
56997;SDS011;42890;44.244;22.530;2023-12-20T11:39:56;27.60;;;24.90;;
56997;SDS011;42890;44.244;22.530;2023-12-20T11:42:22;28.10;;;25.20;;
56997;SDS011;42890;44.244;22.530;2023-12-20T11:44:49;30.00;;;26.80;;
56997;SDS011;42890;44.244;22.530;2023-12-20T11:47:16;26.38;;;23.70;;
56997;SDS011;42890;44.244;22.530;2023-12-20T11:49:44;25.83;;;23.15;;
56997;SDS011;42890;44.244;22.530;2023-12-20T11:52:11;26.02;;;23.27;;
56997;SDS011;42890;44.244;22.530;2023-12-20T11:54:38;28.20;;;22.35;;
56997;SDS011;42890;44.244;22.530;2023-12-20T11:57:04;27.73;;;23.30;;
56997;SDS011;42890;44.244;22.530;2023-12-20T11:59:31;26.92;;;24.08;;
56997;SDS011;42890;44.244;22.530;2023-12-20T12:01:58;26.98;;;24.27;;
56997;SDS011;42890;44.244;22.530;2023-12-20T12:04:26;29.85;;;26.98;;
56997;SDS011;42890;44.244;22.530;2023-12-20T12:06:53;40.08;;;36.00;;
56997;SDS011;42890;44.244;22.530;2023-12-20T12:09:19;42.08;;;34.10;;
56997;SDS011;42890;44.244;22.530;2023-12-20T12:11:45;39.63;;;35.30;;
56997;SDS011;42890;44.244;22.530;2023-12-20T12:14:12;37.97;;;33.88;;
56997;SDS011;42890;44.244;22.530;2023-12-20T12:16:38;33.78;;;30.48;;
56997;SDS011;42890;44.244;22.530;2023-12-20T12:19:04;34.60;;;30.88;;
56997;SDS011;42890;44.244;22.530;2023-12-20T12:21:30;39.95;;;33.13;;
56997;SDS011;42890;44.244;22.530;2023-12-20T12:24:09;35.17;;;31.35;;
56997;SDS011;42890;44.244;22.530;2023-12-20T12:26:35;36.10;;;32.50;;
56997;SDS011;42890;44.244;22.530;2023-12-20T12:29:01;64.28;;;47.65;;
56997;SDS011;42890;44.244;22.530;2023-12-20T12:31:27;41.83;;;36.60;;
56997;SDS011;42890;44.244;22.530;2023-12-20T12:33:53;47.03;;;40.90;;
56997;SDS011;42890;44.244;22.530;2023-12-20T12:36:19;41.92;;;36.80;;
56997;SDS011;42890;44.244;22.530;2023-12-20T12:38:46;39.30;;;34.42;;
56997;SDS011;42890;44.244;22.530;2023-12-20T12:41:15;48.38;;;38.47;;
56997;SDS011;42890;44.244;22.530;2023-12-20T12:43:41;88.60;;;59.67;;
56997;SDS011;42890;44.244;22.530;2023-12-20T12:46:07;65.97;;;55.13;;
56997;SDS011;42890;44.244;22.530;2023-12-20T12:48:34;70.05;;;47.17;;
56997;SDS011;42890;44.244;22.530;2023-12-20T12:51:00;53.00;;;47.35;;
56997;SDS011;42890;44.244;22.530;2023-12-20T12:53:26;63.80;;;54.63;;
56997;SDS011;42890;44.244;22.530;2023-12-20T12:55:52;67.15;;;58.72;;
56997;SDS011;42890;44.244;22.530;2023-12-20T12:58:19;67.72;;;60.70;;
56997;SDS011;42890;44.244;22.530;2023-12-20T13:00:46;74.70;;;57.42;;
56997;SDS011;42890;44.244;22.530;2023-12-20T13:03:12;72.65;;;54.40;;
56997;SDS011;42890;44.244;22.530;2023-12-20T13:05:38;62.40;;;53.20;;
56997;SDS011;42890;44.244;22.530;2023-12-20T13:08:04;101.47;;;70.85;;
56997;SDS011;42890;44.244;22.530;2023-12-20T13:10:31;76.55;;;63.20;;
56997;SDS011;42890;44.244;22.530;2023-12-20T13:12:57;96.90;;;73.03;;
56997;SDS011;42890;44.244;22.530;2023-12-20T13:15:23;174.45;;;106.30;;
56997;SDS011;42890;44.244;22.530;2023-12-20T13:17:50;129.70;;;95.57;;
56997;SDS011;42890;44.244;22.530;2023-12-20T13:20:16;97.95;;;77.82;;
56997;SDS011;42890;44.244;22.530;2023-12-20T13:22:42;90.95;;;73.20;;
56997;SDS011;42890;44.244;22.530;2023-12-20T13:25:08;95.72;;;73.30;;
56997;SDS011;42890;44.244;22.530;2023-12-20T13:27:34;94.82;;;71.60;;
56997;SDS011;42890;44.244;22.530;2023-12-20T13:30:00;82.10;;;67.43;;
56997;SDS011;42890;44.244;22.530;2023-12-20T13:32:27;89.65;;;68.10;;
56997;SDS011;42890;44.244;22.530;2023-12-20T13:34:54;81.75;;;63.08;;
56997;SDS011;42890;44.244;22.530;2023-12-20T13:37:23;72.13;;;61.25;;
56997;SDS011;42890;44.244;22.530;2023-12-20T13:39:49;81.55;;;69.28;;
56997;SDS011;42890;44.244;22.530;2023-12-20T13:42:15;80.15;;;66.85;;
56997;SDS011;42890;44.244;22.530;2023-12-20T13:44:41;69.68;;;54.15;;
56997;SDS011;42890;44.244;22.530;2023-12-20T13:47:09;55.92;;;50.10;;
56997;SDS011;42890;44.244;22.530;2023-12-20T13:49:35;51.55;;;45.92;;
56997;SDS011;42890;44.244;22.530;2023-12-20T13:52:01;52.58;;;47.05;;
56997;SDS011;42890;44.244;22.530;2023-12-20T13:54:29;55.53;;;44.75;;
56997;SDS011;42890;44.244;22.530;2023-12-20T13:56:55;51.17;;;45.78;;
56997;SDS011;42890;44.244;22.530;2023-12-20T13:59:22;60.15;;;51.10;;
56997;SDS011;42890;44.244;22.530;2023-12-20T14:01:49;67.40;;;52.00;;
56997;SDS011;42890;44.244;22.530;2023-12-20T14:04:15;69.13;;;58.97;;
56997;SDS011;42890;44.244;22.530;2023-12-20T14:06:41;74.50;;;62.97;;
56997;SDS011;42890;44.244;22.530;2023-12-20T14:09:07;94.00;;;68.82;;
56997;SDS011;42890;44.244;22.530;2023-12-20T14:11:33;285.63;;;149.43;;
56997;SDS011;42890;44.244;22.530;2023-12-20T14:14:06;354.77;;;183.45;;
56997;SDS011;42890;44.244;22.530;2023-12-20T14:16:33;243.30;;;130.00;;
56997;SDS011;42890;44.244;22.530;2023-12-20T14:18:59;257.23;;;140.43;;
56997;SDS011;42890;44.244;22.530;2023-12-20T14:21:28;261.48;;;141.90;;